Time;durP1;ratioP1;P1;durP2;ratioP2;P2;SDS_P1;SDS_P2;PMS_P1;PMS_P2;Temp;Humidity;BMP_temperature;BMP_pressure;BME280_temperature;BME280_humidity;BME280_pressure;Samples;Min_cycle;Max_cycle;Signal;HPM_P1;HPM_P2
2023/04/29 00:02:43;;;;;;;2.45;1.70;;;;;;;15.39;72.61;99759.78;10270680;28;20355;-72
2023/04/29 00:07:45;;;;;;;2.75;2.13;;;;;;;15.34;73.10;99768.31;10254665;28;20637;-72
2023/04/29 00:12:46;;;;;;;2.55;2.35;;;;;;;15.33;73.08;99779.22;10246991;28;20053;-72
2023/04/29 00:17:47;;;;;;;2.92;2.10;;;;;;;15.27;73.21;99775.34;10245227;28;20057;-72
2023/04/29 00:22:49;;;;;;;3.28;2.40;;;;;;;15.20;73.99;99777.81;10262402;28;20061;-74
2023/04/29 00:27:50;;;;;;;2.53;1.83;;;;;;;15.17;73.10;99775.47;10259550;28;20049;-74
2023/04/29 00:32:52;;;;;;;1.60;1.50;;;;;;;15.09;73.28;99770.13;10260684;28;20047;-74
2023/04/29 00:37:53;;;;;;;2.00;1.52;;;;;;;15.06;73.48;99780.31;10261673;28;20131;-73
2023/04/29 00:42:56;;;;;;;1.30;1.10;;;;;;;15.03;73.54;99776.13;10261001;28;20133;-73
2023/04/29 00:47:57;;;;;;;1.88;1.30;;;;;;;14.98;73.66;99768.59;10265953;28;20062;-74
2023/04/29 00:53:00;;;;;;;1.90;1.33;;;;;;;14.95;73.88;99781.47;10253239;28;20047;-73
2023/04/29 00:58:04;;;;;;;1.70;1.55;;;;;;;14.90;74.02;99775.78;10245662;28;20058;-73
2023/04/29 01:03:06;;;;;;;;;;;;;;;14.87;74.48;99776.09;10260712;28;20061;-74
2023/04/29 01:08:27;;;;;;;1.63;1.30;;;;;;;14.82;74.52;99784.63;10255678;28;20700;-73
2023/04/29 01:13:33;;;;;;;3.10;1.42;;;;;;;14.74;74.88;99777.41;10248066;28;20058;-74
2023/04/29 01:18:45;;;;;;;2.17;1.50;;;;;;;14.69;75.01;99782.38;10260920;28;20049;-73
2023/04/29 01:23:46;;;;;;;1.50;1.40;;;;;;;14.67;75.52;99785.22;10266558;28;20086;-73
2023/04/29 01:29:03;;;;;;;2.95;1.83;;;;;;;14.64;75.62;99784.72;10266014;28;20608;-74
2023/04/29 01:34:18;;;;;;;1.60;1.40;;;;;;;14.71;75.35;99775.03;10267730;28;20058;-74
2023/04/29 01:39:31;;;;;;;3.92;1.52;;;;;;;14.73;75.39;99785.59;10268366;28;20050;-73
2023/04/29 01:44:34;;;;;;;4.15;1.40;;;;;;;14.73;74.77;99789.13;10274446;28;20046;-73
2023/04/29 01:49:36;;;;;;;1.38;1.20;;;;;;;14.67;75.03;99789.75;10251424;28;20051;-73
2023/04/29 01:54:38;;;;;;;2.38;1.50;;;;;;;14.62;75.36;99784.03;10252022;28;20050;-74
2023/04/29 01:59:40;;;;;;;1.80;1.13;;;;;;;14.63;75.08;99788.41;10268251;28;20086;-74
2023/04/29 02:04:42;;;;;;;1.88;1.27;;;;;;;14.64;74.61;99788.25;10237470;28;20610;-73
2023/04/29 02:09:43;;;;;;;1.75;1.15;;;;;;;14.61;74.41;99793.09;10265753;28;20073;-73
2023/04/29 02:14:46;;;;;;;1.60;1.20;;;;;;;14.63;74.71;99789.22;10266020;28;20046;-73
2023/04/29 02:19:48;;;;;;;2.38;1.00;;;;;;;14.64;74.63;99795.44;10290193;28;20054;-73
2023/04/29 02:24:49;;;;;;;1.88;1.02;;;;;;;14.62;74.67;99805.47;10307419;28;20057;-73
2023/04/29 02:29:50;;;;;;;1.15;1.00;;;;;;;14.62;75.07;99800.09;10267742;28;20537;-74
2023/04/29 02:34:52;;;;;;;1.17;0.88;;;;;;;14.67;75.10;99803.97;10270740;28;20593;-74
2023/04/29 02:39:53;;;;;;;1.30;1.10;;;;;;;14.66;74.99;99802.28;10264621;28;20875;-73
2023/04/29 02:44:55;;;;;;;1.20;0.85;;;;;;;14.66;75.18;99821.03;10265615;28;20064;-73
2023/04/29 02:49:57;;;;;;;1.83;0.90;;;;;;;14.65;75.60;99811.34;10279145;28;20061;-73
2023/04/29 02:54:58;;;;;;;1.35;1.00;;;;;;;14.70;75.29;99818.03;10262421;28;20689;-74
2023/04/29 02:59:59;;;;;;;1.42;1.08;;;;;;;14.65;75.91;99823.88;10268709;28;20150;-73
2023/04/29 03:05:01;;;;;;;2.88;1.30;;;;;;;14.66;76.13;99818.38;10253738;28;20065;-72
2023/04/29 03:10:03;;;;;;;2.30;1.80;;;;;;;14.58;75.76;99821.00;10262986;28;20056;-73
2023/04/29 03:15:06;;;;;;;2.25;2.05;;;;;;;14.54;76.11;99824.16;10263338;28;20630;-73
2023/04/29 03:20:09;;;;;;;3.05;2.78;;;;;;;14.48;75.52;99822.94;10263579;28;20047;-73
2023/04/29 03:25:12;;;;;;;3.30;3.00;;;;;;;14.49;75.37;99817.44;10264465;28;20050;-74
2023/04/29 03:30:14;;;;;;;4.38;3.97;;;;;;;14.35;75.35;99826.03;10264347;28;20093;-72
2023/04/29 03:35:15;;;;;;;4.50;4.10;;;;;;;14.40;74.61;99813.03;10265488;28;20050;-74
2023/04/29 03:40:17;;;;;;;4.55;4.13;;;;;;;14.34;74.19;99824.38;10264859;28;20069;-73
2023/04/29 03:45:19;;;;;;;5.68;4.78;;;;;;;14.28;74.39;99825.84;10264200;28;20051;-73
2023/04/29 03:50:22;;;;;;;3.95;3.65;;;;;;;14.32;74.35;99837.06;10260840;28;20137;-73
2023/04/29 03:55:23;;;;;;;5.25;4.75;;;;;;;14.28;73.39;99847.25;10263117;28;20073;-73
2023/04/29 04:00:30;;;;;;;4.32;3.92;;;;;;;14.28;73.58;99851.78;10263977;28;20206;-73
2023/04/29 04:05:31;;;;;;;4.97;4.57;;;;;;;14.31;73.04;99854.16;10280739;28;20046;-74
2023/04/29 04:10:33;;;;;;;4.68;4.22;;;;;;;14.35;73.30;99858.16;10251290;28;20050;-76
2023/04/29 04:15:34;;;;;;;5.57;5.07;;;;;;;14.34;72.43;99867.22;10264990;28;20043;-73
2023/04/29 04:20:36;;;;;;;6.15;5.65;;;;;;;14.25;72.14;99873.53;10251565;28;20057;-73
2023/04/29 04:25:38;;;;;;;6.43;5.82;;;;;;;14.27;71.37;99887.56;10260411;28;20707;-73
2023/04/29 04:30:39;;;;;;;6.63;6.03;;;;;;;14.33;71.47;99898.50;10262637;28;20043;-73
2023/04/29 04:35:41;;;;;;;7.55;6.38;;;;;;;14.32;71.65;99896.81;10265436;28;20097;-73
2023/04/29 04:40:43;;;;;;;7.90;7.20;;;;;;;14.19;70.81;99891.03;10264444;28;20069;-73
2023/04/29 04:45:44;;;;;;;7.15;6.50;;;;;;;14.17;71.41;99908.25;10264105;28;20070;-73
2023/04/29 04:50:46;;;;;;;7.93;7.10;;;;;;;14.17;70.99;99913.59;10271476;28;20141;-74
2023/04/29 04:55:48;;;;;;;7.93;7.00;;;;;;;14.12;71.06;99912.22;10269085;28;20481;-72
2023/04/29 05:00:50;;;;;;;9.48;7.03;;;;;;;14.22;71.38;99916.66;10275547;28;20050;-72
2023/04/29 05:05:56;;;;;;;8.60;7.80;;;;;;;14.22;69.60;99922.03;10256876;28;20062;-73
2023/04/29 05:10:57;;;;;;;8.23;7.43;;;;;;;14.01;69.32;99925.03;10271692;28;20190;-73
2023/04/29 05:16:01;;;;;;;8.80;7.90;;;;;;;14.02;69.16;99930.22;10272941;28;20500;-73
2023/04/29 05:21:06;;;;;;;8.88;7.95;;;;;;;14.00;69.02;99934.88;10277159;28;20665;-73
2023/04/29 05:26:08;;;;;;;9.55;8.55;;;;;;;13.99;68.22;99945.72;10285000;28;20672;-73
2023/04/29 05:31:10;;;;;;;9.15;7.72;;;;;;;14.06;68.18;99958.34;10297653;28;20066;-73
2023/04/29 05:36:11;;;;;;;8.40;7.28;;;;;;;13.95;67.00;99961.25;10267296;28;20055;-73
2023/04/29 05:41:13;;;;;;;6.78;6.05;;;;;;;13.94;66.58;99963.06;10260201;28;20669;-75
2023/04/29 05:46:15;;;;;;;6.50;5.10;;;;;;;14.02;64.13;99973.03;10256492;28;20046;-74
2023/04/29 05:51:18;;;;;;;7.03;5.15;;;;;;;14.09;64.75;99984.78;10262684;28;20050;-72
2023/04/29 05:56:21;;;;;;;5.10;4.60;;;;;;;14.04;64.13;99992.44;10271243;28;20069;-74
2023/04/29 06:01:22;;;;;;;5.53;4.60;;;;;;;14.22;63.90;100000.47;10253179;28;20958;-74
2023/04/29 06:06:24;;;;;;;5.82;4.30;;;;;;;14.36;63.26;100007.13;10272518;28;20093;-75
2023/04/29 06:11:26;;;;;;;4.95;4.47;;;;;;;14.21;62.83;100014.03;10267884;28;20054;-74
2023/04/29 06:16:27;;;;;;;4.50;4.10;;;;;;;14.30;61.93;100016.59;10254100;28;20065;-71
2023/04/29 06:21:30;;;;;;;5.47;4.25;;;;;;;14.21;62.89;100027.41;10290923;28;20046;-70
2023/04/29 06:26:32;;;;;;;5.82;4.90;;;;;;;14.49;61.99;100023.63;10264026;28;20713;-74
2023/04/29 06:31:33;;;;;;;6.22;4.85;;;;;;;14.69;61.03;100039.56;10268059;28;20133;-74
2023/04/29 06:36:35;;;;;;;21.33;7.80;;;;;;;14.59;60.63;100041.44;10268977;28;20080;-74
2023/04/29 06:41:36;;;;;;;4.93;4.43;;;;;;;14.67;60.68;100057.66;10265365;28;20492;-75
2023/04/29 06:46:38;;;;;;;18.75;9.10;;;;;;;14.94;60.20;100055.84;10254151;28;20057;-73
2023/04/29 06:51:41;;;;;;;18.45;7.63;;;;;;;15.19;59.83;100064.84;10244202;28;20376;-75
2023/04/29 06:56:43;;;;;;;394.80;87.40;;;;;;;15.48;57.72;100067.22;10261486;28;20097;-74
2023/04/29 07:01:44;;;;;;;67.60;16.90;;;;;;;15.32;58.38;100057.22;10266071;28;20058;-75
2023/04/29 07:06:50;;;;;;;9.10;4.75;;;;;;;15.33;58.12;100071.50;10268423;28;20046;-75
2023/04/29 07:11:51;;;;;;;8.68;4.68;;;;;;;14.87;58.59;100085.09;10295178;28;20047;-74
2023/04/29 07:16:53;;;;;;;4.80;4.40;;;;;;;14.64;59.71;100077.53;10270338;28;20062;-74
2023/04/29 07:21:55;;;;;;;4.10;3.63;;;;;;;14.63;60.23;100086.56;10269638;28;20050;-74
2023/04/29 07:26:56;;;;;;;4.60;3.67;;;;;;;14.44;60.43;100092.91;10262953;28;21145;-74
2023/04/29 07:31:59;;;;;;;4.78;4.38;;;;;;;14.49;61.25;100098.63;10254492;28;20057;-73
2023/04/29 07:37:00;;;;;;;5.32;4.60;;;;;;;14.64;61.38;100108.84;10265352;28;20513;-73
2023/04/29 07:42:03;;;;;;;4.82;4.32;;;;;;;14.42;61.92;100110.94;10253202;28;20667;-73
2023/04/29 07:47:05;;;;;;;5.50;4.82;;;;;;;14.40;62.72;100126.31;10265133;28;20050;-73
2023/04/29 07:52:08;;;;;;;6.72;6.03;;;;;;;14.45;62.44;100137.41;10258563;28;20188;-75
2023/04/29 07:57:10;;;;;;;5.35;4.82;;;;;;;14.32;64.35;100131.56;10280918;28;20113;-75
2023/04/29 08:02:12;;;;;;;4.57;4.18;;;;;;;14.39;63.32;100139.88;10286734;28;20101;-73
2023/04/29 08:07:14;;;;;;;4.18;3.75;;;;;;;14.58;63.29;100149.59;10274873;28;20873;-74
2023/04/29 08:12:15;;;;;;;5.03;4.22;;;;;;;14.72;62.63;100149.09;10264763;28;20054;-74
2023/04/29 08:17:17;;;;;;;4.20;3.80;;;;;;;14.75;62.11;100164.88;10245233;28;20055;-73
2023/04/29 08:22:19;;;;;;;4.32;3.85;;;;;;;14.78;62.64;100164.56;10265880;28;20930;-73
2023/04/29 08:27:20;;;;;;;5.03;3.88;;;;;;;14.96;61.94;100172.59;10259759;28;20265;-74
2023/04/29 08:32:22;;;;;;;5.53;4.00;;;;;;;14.91;62.01;100174.06;10266703;28;20811;-74
2023/04/29 08:37:23;;;;;;;4.63;3.85;;;;;;;14.92;61.48;100176.59;10256790;28;20053;-72
2023/04/29 08:42:33;;;;;;;4.20;3.80;;;;;;;14.91;61.75;100185.63;10259169;28;20055;-73
2023/04/29 08:47:35;;;;;;;4.90;3.58;;;;;;;14.69;62.21;100194.13;10257893;28;20050;-74
2023/04/29 08:52:37;;;;;;;4.45;3.70;;;;;;;14.62;62.39;100185.81;10255288;28;20054;-72
2023/04/29 08:57:42;;;;;;;4.05;3.30;;;;;;;14.66;62.69;100184.53;10274291;28;21102;-73
2023/04/29 09:02:52;;;;;;;3.33;2.92;;;;;;;14.73;61.93;100196.34;10259043;28;20050;-75
2023/04/29 09:07:56;;;;;;;4.85;4.38;;;;;;;14.76;62.54;100198.72;10265176;28;20050;-73
2023/04/29 09:12:57;;;;;;;4.63;3.90;;;;;;;14.98;62.90;100196.56;10283447;28;20509;-74
2023/04/29 09:17:58;;;;;;;4.03;3.38;;;;;;;15.15;62.43;100203.75;10307236;28;20074;-75
2023/04/29 09:23:05;;;;;;;3.10;2.80;;;;;;;15.22;62.06;100203.13;10256179;28;20739;-73
2023/04/29 09:28:16;;;;;;;3.80;3.20;;;;;;;15.22;61.75;100211.19;10272419;28;20055;-74
2023/04/29 09:33:17;;;;;;;3.25;2.95;;;;;;;15.20;61.90;100217.53;10299657;28;20074;-74
2023/04/29 09:38:19;;;;;;;4.40;2.90;;;;;;;15.19;61.80;100210.50;10275132;28;20054;-75
2023/04/29 09:43:22;;;;;;;4.10;2.92;;;;;;;15.10;61.82;100216.78;10248459;28;20054;-74
2023/04/29 09:48:30;;;;;;;3.75;3.20;;;;;;;15.11;62.50;100223.81;10270039;28;20811;-74
2023/04/29 09:53:33;;;;;;;3.60;3.13;;;;;;;15.20;62.84;100230.09;10264139;28;20088;-73
2023/04/29 09:58:39;;;;;;;4.63;3.17;;;;;;;15.24;62.50;100230.63;10263347;28;20773;-73
2023/04/29 10:03:41;;;;;;;4.07;3.22;;;;;;;15.12;62.82;100233.56;10267296;28;20042;-73
2023/04/29 10:08:45;;;;;;;4.22;3.08;;;;;;;15.11;62.65;100239.91;10249759;28;20054;-73
2023/04/29 10:13:51;;;;;;;3.77;2.97;;;;;;;15.06;62.80;100242.22;10250663;28;20164;-73
2023/04/29 10:18:54;;;;;;;2.85;2.08;;;;;;;14.90;63.45;100250.94;10264228;28;20051;-73
2023/04/29 10:23:57;;;;;;;2.22;1.92;;;;;;;14.94;62.92;100243.44;10246607;28;20047;-73
2023/04/29 10:29:00;;;;;;;3.17;1.92;;;;;;;14.92;61.70;100240.06;10260970;28;20159;-76
2023/04/29 10:34:02;;;;;;;2.53;1.98;;;;;;;15.11;61.79;100234.53;10288265;28;20082;-73
2023/04/29 10:39:07;;;;;;;2.38;2.17;;;;;;;15.30;61.04;100243.44;10265797;28;20065;-74
2023/04/29 10:44:09;;;;;;;1.98;1.77;;;;;;;15.27;59.97;100227.66;10259338;28;20058;-73
2023/04/29 10:49:10;;;;;;;2.28;1.60;;;;;;;15.59;59.98;100242.31;10265920;28;20051;-74
2023/04/29 10:54:19;;;;;;;1.90;1.63;;;;;;;16.14;57.25;100246.53;10261872;28;20065;-72
2023/04/29 10:59:41;;;;;;;1.83;1.25;;;;;;;16.49;55.89;100245.53;10259881;28;20101;-73
2023/04/29 11:05:09;;;;;;;2.60;1.40;;;;;;;16.66;55.18;100253.66;10259842;28;21134;-73
2023/04/29 11:10:12;;;;;;;1.65;1.55;;;;;;;16.51;55.34;100250.75;10246104;28;20061;-73
2023/04/29 11:15:17;;;;;;;1.67;1.55;;;;;;;16.37;55.54;100241.47;10244480;28;20696;-72
2023/04/29 11:20:18;;;;;;;1.85;1.52;;;;;;;16.32;55.19;100246.47;10259674;28;20046;-73
2023/04/29 11:25:20;;;;;;;1.73;1.63;;;;;;;16.38;55.88;100240.47;10256857;28;20231;-74
2023/04/29 11:30:22;;;;;;;2.20;1.60;;;;;;;16.45;56.46;100238.78;10244612;28;20662;-74
2023/04/29 11:35:23;;;;;;;2.33;1.75;;;;;;;16.49;55.51;100242.00;10259079;28;20153;-73
2023/04/29 11:40:25;;;;;;;2.83;1.75;;;;;;;16.55;55.53;100246.72;10256233;28;20057;-73
2023/04/29 11:45:26;;;;;;;2.70;2.33;;;;;;;16.54;55.60;100250.41;10242229;28;20506;-74
2023/04/29 11:50:31;;;;;;;2.88;1.90;;;;;;;16.60;54.43;100253.31;10257727;28;20055;-74
2023/04/29 11:55:33;;;;;;;2.55;1.90;;;;;;;16.76;55.12;100246.28;10251368;28;20101;-73
2023/04/29 12:00:35;;;;;;;2.38;2.10;;;;;;;16.72;54.80;100255.69;10243826;28;20604;-74
2023/04/29 12:05:36;;;;;;;3.28;2.78;;;;;;;16.52;56.04;100250.59;10240498;28;20050;-73
2023/04/29 12:10:37;;;;;;;2.22;2.03;;;;;;;16.38;56.02;100253.91;10242867;28;20560;-74
2023/04/29 12:15:39;;;;;;;2.60;2.08;;;;;;;16.28;56.17;100256.69;10237236;28;20073;-74
2023/04/29 12:20:41;;;;;;;3.47;2.08;;;;;;;16.19;56.20;100261.19;10242886;28;20057;-75
2023/04/29 12:25:48;;;;;;;3.10;1.58;;;;;;;16.04;57.59;100257.41;10246275;28;20498;-74
2023/04/29 12:30:52;;;;;;;2.67;1.98;;;;;;;16.16;56.87;100261.50;10260521;28;20046;-74
2023/04/29 12:35:55;;;;;;;;;;;;;;;16.08;56.93;100272.22;10240896;28;20496;-74
2023/04/29 12:41:00;;;;;;;2.28;1.73;;;;;;;16.02;56.35;100265.63;10254501;28;20051;-74
2023/04/29 12:46:04;;;;;;;2.03;1.70;;;;;;;16.06;56.71;100271.50;10256475;28;20192;-73
2023/04/29 12:51:08;;;;;;;1.80;1.60;;;;;;;16.04;55.71;100276.19;10255779;28;20062;-74
2023/04/29 12:56:11;;;;;;;2.42;1.88;;;;;;;16.06;55.75;100276.88;10251595;28;20354;-73
2023/04/29 13:01:12;;;;;;;2.15;1.92;;;;;;;16.13;56.44;100277.09;10259699;28;20653;-74
2023/04/29 13:06:19;;;;;;;2.58;1.73;;;;;;;16.20;56.29;100278.97;10278947;28;20525;-75
2023/04/29 13:11:20;;;;;;;1.75;1.58;;;;;;;16.23;56.13;100277.81;10262061;28;20061;-75
2023/04/29 13:16:23;;;;;;;2.83;1.48;;;;;;;16.23;55.85;100275.97;10264486;28;20137;-73
2023/04/29 13:21:26;;;;;;;2.53;2.17;;;;;;;16.38;56.77;100276.22;10256391;28;20703;-72
2023/04/29 13:26:28;;;;;;;4.25;2.88;;;;;;;16.48;55.95;100283.31;10248801;28;20105;-73
2023/04/29 13:31:29;;;;;;;4.25;1.88;;;;;;;16.37;56.10;100279.06;10253354;28;20065;-75
2023/04/29 13:36:31;;;;;;;1.70;1.48;;;;;;;16.38;56.78;100283.44;10261709;28;20054;-73
2023/04/29 13:41:33;;;;;;;2.80;1.65;;;;;;;16.25;56.99;100287.38;10253018;28;20528;-74
2023/04/29 13:46:36;;;;;;;1.98;1.77;;;;;;;16.19;57.39;100296.09;10250769;28;20697;-72
2023/04/29 13:51:38;;;;;;;2.20;1.77;;;;;;;16.24;57.84;100296.47;10264192;28;20043;-72
2023/04/29 13:56:42;;;;;;;2.10;1.90;;;;;;;16.24;58.11;100292.91;10261513;28;20065;-72
2023/04/29 14:02:04;;;;;;;2.00;1.45;;;;;;;16.31;58.48;100306.56;10267064;28;20065;-74
2023/04/29 14:07:08;;;;;;;1.80;1.70;;;;;;;16.35;58.15;100305.22;10271453;28;20277;-72
2023/04/29 14:12:10;;;;;;;2.90;2.53;;;;;;;16.46;58.01;100299.59;10271603;28;20063;-72
2023/04/29 14:17:12;;;;;;;1.70;1.60;;;;;;;16.55;57.48;100309.38;10256168;28;20521;-73
2023/04/29 14:22:13;;;;;;;2.38;1.98;;;;;;;16.55;57.41;100320.13;10262374;28;20050;-73
2023/04/29 14:27:15;;;;;;;2.72;2.53;;;;;;;16.50;57.38;100317.09;10266797;28;20070;-74
2023/04/29 14:32:16;;;;;;;2.60;2.40;;;;;;;16.41;57.88;100318.03;10244959;28;20058;-73
2023/04/29 14:37:18;;;;;;;2.38;2.17;;;;;;;16.47;58.06;100330.84;10270858;28;20139;-74
2023/04/29 14:42:19;;;;;;;3.22;2.58;;;;;;;16.47;58.37;100328.16;10309949;28;20077;-74
2023/04/29 14:47:20;;;;;;;5.43;2.70;;;;;;;16.33;58.62;100326.03;10281744;28;20051;-73
2023/04/29 14:52:22;;;;;;;2.97;2.50;;;;;;;16.34;58.54;100331.25;10279382;28;20048;-74
2023/04/29 14:57:23;;;;;;;3.40;3.10;;;;;;;16.34;58.79;100342.00;10268769;28;20055;-75
2023/04/29 15:02:25;;;;;;;3.60;3.25;;;;;;;16.36;58.56;100336.47;10266726;28;20058;-75
2023/04/29 15:07:27;;;;;;;3.58;3.28;;;;;;;16.37;58.73;100355.13;10267448;28;20054;-74
2023/04/29 15:12:32;;;;;;;2.10;1.65;;;;;;;16.35;59.02;100367.00;10262209;28;20057;-73
2023/04/29 15:17:33;;;;;;;1.00;0.90;;;;;;;16.31;59.32;100365.66;10247060;28;20177;-74
2023/04/29 15:22:34;;;;;;;1.48;0.95;;;;;;;16.22;59.55;100370.13;10259892;28;20097;-72
2023/04/29 15:27:37;;;;;;;3.22;0.88;;;;;;;16.16;58.18;100385.03;10261728;28;20589;-73
2023/04/29 15:32:38;;;;;;;2.20;0.85;;;;;;;15.80;58.90;100385.06;10244699;28;20068;-72
2023/04/29 15:37:40;;;;;;;2.30;0.90;;;;;;;15.85;58.76;100388.16;10243871;28;20132;-74
2023/04/29 15:42:41;;;;;;;1.88;0.60;;;;;;;15.79;58.70;100391.44;10249160;28;20050;-73
2023/04/29 15:47:43;;;;;;;1.65;0.95;;;;;;;15.74;58.95;100396.41;10242972;28;20116;-74
2023/04/29 15:52:44;;;;;;;1.27;1.10;;;;;;;15.69;58.98;100404.06;10265090;28;20074;-74
2023/04/29 15:57:45;;;;;;;2.40;2.03;;;;;;;15.67;58.92;100406.03;10243019;28;20196;-75
2023/04/29 16:02:47;;;;;;;3.60;2.50;;;;;;;15.58;58.58;100397.06;10244260;28;20061;-75
2023/04/29 16:07:48;;;;;;;3.63;2.85;;;;;;;15.60;58.86;100404.97;10262995;28;20050;-73
2023/04/29 16:12:50;;;;;;;5.43;3.70;;;;;;;15.55;58.79;100402.75;10266137;28;20484;-74
2023/04/29 16:17:51;;;;;;;4.07;3.58;;;;;;;15.51;58.85;100402.22;10277399;28;20051;-73
2023/04/29 16:22:53;;;;;;;5.22;4.55;;;;;;;15.31;59.48;100408.69;10260212;28;20402;-73
2023/04/29 16:27:54;;;;;;;5.93;5.38;;;;;;;15.23;59.41;100397.91;10261188;28;20054;-73
2023/04/29 16:32:56;;;;;;;5.07;4.57;;;;;;;15.24;59.47;100407.59;10246373;28;20046;-76
2023/04/29 16:37:57;;;;;;;6.32;5.10;;;;;;;15.25;59.36;100406.63;10264311;28;20461;-71
2023/04/29 16:42:59;;;;;;;4.97;4.47;;;;;;;15.29;59.26;100413.38;10263984;28;20090;-70
2023/04/29 16:48:00;;;;;;;5.50;5.00;;;;;;;15.27;59.45;100416.22;10251237;28;20066;-73
2023/04/29 16:53:03;;;;;;;6.75;5.18;;;;;;;15.27;59.53;100412.69;10270470;28;20050;-73
2023/04/29 16:58:04;;;;;;;5.65;5.13;;;;;;;15.25;59.56;100409.28;10263446;28;20061;-74
2023/04/29 17:03:06;;;;;;;5.80;5.18;;;;;;;15.26;59.40;100419.03;10251139;28;21125;-72
2023/04/29 17:08:07;;;;;;;4.85;4.40;;;;;;;15.24;59.54;100423.69;10241149;28;20141;-72
2023/04/29 17:13:09;;;;;;;5.80;5.10;;;;;;;15.19;59.74;100430.38;10266657;28;20656;-72
2023/04/29 17:18:11;;;;;;;7.18;5.72;;;;;;;15.11;60.60;100427.56;10255373;28;20058;-73
2023/04/29 17:23:13;;;;;;;6.65;6.03;;;;;;;15.06;60.79;100427.19;10269641;28;20186;-73
2023/04/29 17:28:14;;;;;;;5.97;5.38;;;;;;;15.09;59.88;100439.47;10265750;28;20532;-71
2023/04/29 17:33:16;;;;;;;5.90;5.32;;;;;;;14.99;60.19;100439.50;10268950;28;20065;-74
2023/04/29 17:38:18;;;;;;;7.13;6.43;;;;;;;14.97;60.13;100441.47;10269851;28;20049;-74
2023/04/29 17:43:19;;;;;;;7.25;6.55;;;;;;;14.88;59.34;100450.38;10265455;28;20051;-74
2023/04/29 17:48:21;;;;;;;7.35;6.63;;;;;;;14.85;58.56;100448.84;10266347;28;20046;-74
2023/04/29 17:53:23;;;;;;;7.50;6.80;;;;;;;14.80;58.37;100459.16;10249063;28;20069;-75
2023/04/29 17:58:26;;;;;;;8.38;7.00;;;;;;;14.83;58.52;100456.19;10273542;28;20050;-75
2023/04/29 18:03:29;;;;;;;8.82;6.90;;;;;;;14.80;58.25;100461.84;10293020;28;20102;-75
2023/04/29 18:08:31;;;;;;;7.83;7.13;;;;;;;14.82;58.71;100470.59;10295634;28;20058;-75
2023/04/29 18:13:33;;;;;;;8.07;7.28;;;;;;;14.82;59.05;100476.78;10307113;28;20078;-76
2023/04/29 18:18:36;;;;;;;9.10;7.40;;;;;;;14.62;59.52;100481.38;10260052;28;20085;-77
2023/04/29 18:23:38;;;;;;;8.23;7.43;;;;;;;14.54;59.91;100483.03;10260899;28;20772;-73
2023/04/29 18:28:40;;;;;;;7.97;7.28;;;;;;;14.57;60.15;100485.41;10268172;28;20061;-71
2023/04/29 18:33:42;;;;;;;9.20;7.75;;;;;;;14.58;60.39;100489.81;10275123;28;21196;-75
2023/04/29 18:38:44;;;;;;;8.15;7.28;;;;;;;14.47;60.16;100493.47;10255349;28;20493;-73
2023/04/29 18:43:45;;;;;;;10.15;8.48;;;;;;;14.43;60.01;100497.44;10267104;28;20061;-73
2023/04/29 18:48:47;;;;;;;10.18;8.35;;;;;;;14.42;60.40;100495.72;10267169;28;20190;-74
2023/04/29 18:53:48;;;;;;;8.98;8.07;;;;;;;14.47;60.30;100491.66;10253739;28;20727;-73
2023/04/29 18:58:50;;;;;;;9.27;8.38;;;;;;;14.52;60.30;100501.94;10249539;28;20054;-71
2023/04/29 19:03:51;;;;;;;8.40;7.60;;;;;;;14.54;60.08;100509.81;10264850;28;20190;-74
2023/04/29 19:08:53;;;;;;;8.38;7.68;;;;;;;14.50;60.27;100510.09;10268491;28;20101;-71
2023/04/29 19:13:54;;;;;;;9.23;8.43;;;;;;;14.55;60.92;100516.88;10265114;28;20419;-71
2023/04/29 19:18:56;;;;;;;10.68;9.68;;;;;;;14.55;60.72;100519.56;10267387;28;20054;-71
2023/04/29 19:23:57;;;;;;;9.85;8.95;;;;;;;14.49;60.52;100513.75;10279643;28;20077;-72
2023/04/29 19:28:59;;;;;;;10.18;9.18;;;;;;;14.47;60.92;100531.81;10259283;28;20046;-72
2023/04/29 19:34:00;;;;;;;11.02;9.93;;;;;;;14.53;61.46;100546.47;10258271;28;20067;-73
2023/04/29 19:39:03;;;;;;;9.75;8.85;;;;;;;14.49;61.57;100550.44;10268823;28;20109;-74
2023/04/29 19:44:05;;;;;;;9.63;8.77;;;;;;;14.44;61.17;100547.31;10279337;28;20069;-73
2023/04/29 19:49:06;;;;;;;10.90;9.90;;;;;;;14.44;61.15;100545.50;10264296;28;20070;-72
2023/04/29 19:54:08;;;;;;;10.52;9.52;;;;;;;14.41;61.22;100542.25;10246118;28;20652;-71
2023/04/29 19:59:12;;;;;;;9.93;9.00;;;;;;;14.46;61.36;100554.22;10270789;28;20372;-72
2023/04/29 20:04:13;;;;;;;8.75;7.93;;;;;;;14.40;61.47;100552.13;10269585;28;20058;-73
2023/04/29 20:09:15;;;;;;;9.75;8.85;;;;;;;14.41;61.42;100553.81;10281773;28;20445;-72
2023/04/29 20:14:16;;;;;;;10.93;9.82;;;;;;;14.42;61.31;100563.53;10282296;28;20145;-74
2023/04/29 20:19:18;;;;;;;10.15;9.35;;;;;;;14.41;61.34;100569.03;10292866;28;20094;-72
2023/04/29 20:24:19;;;;;;;9.55;8.52;;;;;;;14.42;61.35;100576.06;10275030;28;20752;-72
2023/04/29 20:29:21;;;;;;;9.55;8.65;;;;;;;14.33;61.66;100556.34;10279759;28;20050;-72
2023/04/29 20:34:22;;;;;;;9.10;8.23;;;;;;;14.36;61.43;100572.13;10287342;28;20141;-73
2023/04/29 20:39:24;;;;;;;9.65;8.73;;;;;;;14.36;61.46;100566.75;10284800;28;20054;-71
2023/04/29 20:44:26;;;;;;;9.98;9.10;;;;;;;14.34;61.80;100574.09;10275186;28;20695;-73
2023/04/29 20:49:28;;;;;;;9.25;8.35;;;;;;;14.29;61.80;100569.16;10265203;28;20051;-73
2023/04/29 20:54:29;;;;;;;10.00;9.15;;;;;;;14.27;61.74;100567.63;10290356;28;20058;-72
2023/04/29 20:59:34;;;;;;;10.25;9.32;;;;;;;14.27;61.69;100562.25;10271717;28;20062;-74
2023/04/29 21:04:35;;;;;;;9.80;8.90;;;;;;;14.26;61.75;100565.91;10288301;28;20066;-71
2023/04/29 21:09:37;;;;;;;9.52;8.63;;;;;;;14.27;61.58;100579.16;10296573;28;20038;-73
2023/04/29 21:14:39;;;;;;;9.70;8.70;;;;;;;14.27;61.79;100575.66;10291895;28;20109;-74
2023/04/29 21:19:43;;;;;;;11.38;10.38;;;;;;;14.29;62.35;100592.41;10281021;28;20050;-73
2023/04/29 21:24:44;;;;;;;10.35;9.35;;;;;;;14.30;62.22;100586.06;10276212;28;20046;-72
2023/04/29 21:29:46;;;;;;;11.05;9.98;;;;;;;14.24;62.74;100579.44;10256933;28;20061;-72
2023/04/29 21:34:47;;;;;;;10.20;9.18;;;;;;;14.23;62.44;100577.78;10278097;28;20095;-71
2023/04/29 21:39:50;;;;;;;10.02;8.98;;;;;;;14.22;62.60;100580.59;10279527;28;20109;-72
2023/04/29 21:44:58;;;;;;;9.95;9.00;;;;;;;14.22;62.57;100585.94;10282164;28;20494;-72
2023/04/29 21:50:00;;;;;;;10.45;9.45;;;;;;;14.20;62.49;100590.56;10276723;28;20042;-73
2023/04/29 21:55:05;;;;;;;10.23;9.32;;;;;;;14.17;62.33;100583.66;10273368;28;20094;-72
2023/04/29 22:00:19;;;;;;;11.00;10.00;;;;;;;14.13;62.68;100588.44;10270284;28;20058;-71
2023/04/29 22:05:21;;;;;;;10.63;9.73;;;;;;;14.18;62.57;100597.91;10273855;28;20141;-73
2023/04/29 22:10:22;;;;;;;10.32;9.32;;;;;;;14.14;62.58;100600.84;10269852;28;20131;-72
2023/04/29 22:15:24;;;;;;;10.35;9.25;;;;;;;14.12;63.14;100602.81;10271442;28;20480;-71
2023/04/29 22:20:29;;;;;;;10.35;9.45;;;;;;;14.09;63.20;100594.22;10270363;28;20140;-71
2023/04/29 22:25:31;;;;;;;11.30;10.18;;;;;;;14.08;63.48;100604.09;10271759;28;20650;-72
2023/04/29 22:30:32;;;;;;;11.30;10.30;;;;;;;14.07;63.80;100604.22;10266124;28;20143;-72
2023/04/29 22:35:34;;;;;;;11.55;10.45;;;;;;;14.06;63.95;100619.41;10280933;28;20059;-75
2023/04/29 22:40:36;;;;;;;12.38;11.27;;;;;;;14.06;64.04;100618.59;10288325;28;20748;-72
2023/04/29 22:45:37;;;;;;;12.63;11.02;;;;;;;14.02;64.08;100618.03;10298118;28;20067;-74
2023/04/29 22:50:39;;;;;;;12.25;11.05;;;;;;;13.96;64.53;100619.41;10273530;28;20129;-71
2023/04/29 22:55:51;;;;;;;12.35;11.25;;;;;;;13.95;64.38;100616.88;10267852;28;20058;-72
2023/04/29 23:00:55;;;;;;;11.65;10.75;;;;;;;13.96;64.23;100618.53;10268714;28;20065;-72
2023/04/29 23:05:58;;;;;;;12.68;11.45;;;;;;;13.92;64.06;100618.00;10270440;28;20201;-73
2023/04/29 23:11:00;;;;;;;12.68;11.52;;;;;;;13.91;64.63;100616.28;10261652;28;20691;-72
2023/04/29 23:16:02;;;;;;;13.02;11.75;;;;;;;13.89;64.59;100607.56;10273522;28;20467;-73